sensor_id;sensor_type;location;lat;lon;timestamp;P1;durP1;ratioP1;P2;durP2;ratioP2
35632;SDS011;21754;48.216;-1.628;2023-04-25T00:00:11;6.40;;;2.50;;
35632;SDS011;21754;48.216;-1.628;2023-04-25T00:02:37;6.30;;;2.70;;
35632;SDS011;21754;48.216;-1.628;2023-04-25T00:05:03;6.25;;;3.60;;
35632;SDS011;21754;48.216;-1.628;2023-04-25T00:07:29;6.45;;;2.47;;
35632;SDS011;21754;48.216;-1.628;2023-04-25T00:09:56;4.72;;;1.88;;
35632;SDS011;21754;48.216;-1.628;2023-04-25T00:12:22;5.50;;;2.40;;
35632;SDS011;21754;48.216;-1.628;2023-04-25T00:14:48;3.25;;;2.03;;
35632;SDS011;21754;48.216;-1.628;2023-04-25T00:17:17;5.72;;;2.08;;
35632;SDS011;21754;48.216;-1.628;2023-04-25T00:19:44;7.30;;;2.00;;
35632;SDS011;21754;48.216;-1.628;2023-04-25T00:22:11;6.05;;;2.67;;
35632;SDS011;21754;48.216;-1.628;2023-04-25T00:24:38;9.77;;;2.63;;
35632;SDS011;21754;48.216;-1.628;2023-04-25T00:27:04;8.38;;;2.80;;
35632;SDS011;21754;48.216;-1.628;2023-04-25T00:29:30;6.63;;;2.38;;
35632;SDS011;21754;48.216;-1.628;2023-04-25T00:31:56;9.88;;;1.85;;
35632;SDS011;21754;48.216;-1.628;2023-04-25T00:34:22;7.85;;;2.50;;
35632;SDS011;21754;48.216;-1.628;2023-04-25T00:36:48;6.50;;;1.65;;
35632;SDS011;21754;48.216;-1.628;2023-04-25T00:39:14;5.70;;;3.03;;
35632;SDS011;21754;48.216;-1.628;2023-04-25T00:41:40;3.35;;;2.33;;
35632;SDS011;21754;48.216;-1.628;2023-04-25T00:44:06;13.38;;;1.50;;
35632;SDS011;21754;48.216;-1.628;2023-04-25T00:46:33;4.55;;;2.17;;
35632;SDS011;21754;48.216;-1.628;2023-04-25T00:48:59;2.72;;;2.05;;
35632;SDS011;21754;48.216;-1.628;2023-04-25T00:51:25;3.72;;;2.33;;
35632;SDS011;21754;48.216;-1.628;2023-04-25T00:53:51;7.40;;;2.17;;
35632;SDS011;21754;48.216;-1.628;2023-04-25T00:56:18;6.43;;;3.13;;
35632;SDS011;21754;48.216;-1.628;2023-04-25T00:58:44;3.13;;;1.75;;
35632;SDS011;21754;48.216;-1.628;2023-04-25T01:01:10;12.90;;;3.42;;
35632;SDS011;21754;48.216;-1.628;2023-04-25T01:03:37;2.55;;;1.83;;
35632;SDS011;21754;48.216;-1.628;2023-04-25T01:06:10;4.10;;;2.03;;
35632;SDS011;21754;48.216;-1.628;2023-04-25T01:08:37;4.32;;;2.08;;
35632;SDS011;21754;48.216;-1.628;2023-04-25T01:11:03;6.80;;;1.88;;
35632;SDS011;21754;48.216;-1.628;2023-04-25T01:13:30;3.30;;;2.20;;
35632;SDS011;21754;48.216;-1.628;2023-04-25T01:15:57;3.83;;;1.77;;
35632;SDS011;21754;48.216;-1.628;2023-04-25T01:18:23;6.25;;;2.78;;
35632;SDS011;21754;48.216;-1.628;2023-04-25T01:20:50;6.15;;;2.30;;
35632;SDS011;21754;48.216;-1.628;2023-04-25T01:23:16;7.32;;;2.75;;
35632;SDS011;21754;48.216;-1.628;2023-04-25T01:25:43;23.55;;;3.35;;
35632;SDS011;21754;48.216;-1.628;2023-04-25T01:28:09;3.42;;;2.28;;
35632;SDS011;21754;48.216;-1.628;2023-04-25T01:30:35;7.90;;;2.40;;
35632;SDS011;21754;48.216;-1.628;2023-04-25T01:33:01;2.53;;;2.08;;
35632;SDS011;21754;48.216;-1.628;2023-04-25T01:35:30;8.73;;;2.80;;
35632;SDS011;21754;48.216;-1.628;2023-04-25T01:37:56;10.13;;;2.40;;
35632;SDS011;21754;48.216;-1.628;2023-04-25T01:40:23;5.70;;;2.28;;
35632;SDS011;21754;48.216;-1.628;2023-04-25T01:42:50;4.78;;;2.55;;
35632;SDS011;21754;48.216;-1.628;2023-04-25T01:45:16;4.63;;;2.58;;
35632;SDS011;21754;48.216;-1.628;2023-04-25T01:47:42;7.93;;;2.80;;
35632;SDS011;21754;48.216;-1.628;2023-04-25T01:50:08;7.22;;;1.92;;
35632;SDS011;21754;48.216;-1.628;2023-04-25T01:52:36;25.33;;;2.42;;
35632;SDS011;21754;48.216;-1.628;2023-04-25T01:55:02;5.93;;;2.17;;
35632;SDS011;21754;48.216;-1.628;2023-04-25T01:57:28;9.80;;;2.25;;
35632;SDS011;21754;48.216;-1.628;2023-04-25T01:59:58;3.03;;;2.03;;
35632;SDS011;21754;48.216;-1.628;2023-04-25T02:02:24;7.07;;;3.72;;
35632;SDS011;21754;48.216;-1.628;2023-04-25T02:04:51;4.93;;;2.95;;
35632;SDS011;21754;48.216;-1.628;2023-04-25T02:07:17;5.70;;;3.10;;
35632;SDS011;21754;48.216;-1.628;2023-04-25T02:09:43;7.90;;;3.78;;
35632;SDS011;21754;48.216;-1.628;2023-04-25T02:12:09;5.88;;;2.05;;
35632;SDS011;21754;48.216;-1.628;2023-04-25T02:14:36;3.17;;;2.88;;
35632;SDS011;21754;48.216;-1.628;2023-04-25T02:17:02;6.75;;;2.65;;
35632;SDS011;21754;48.216;-1.628;2023-04-25T02:19:28;9.27;;;2.30;;
35632;SDS011;21754;48.216;-1.628;2023-04-25T02:21:54;7.13;;;2.85;;
35632;SDS011;21754;48.216;-1.628;2023-04-25T02:24:22;9.40;;;2.20;;
35632;SDS011;21754;48.216;-1.628;2023-04-25T02:26:48;4.88;;;2.83;;
35632;SDS011;21754;48.216;-1.628;2023-04-25T02:29:14;5.28;;;2.15;;
35632;SDS011;21754;48.216;-1.628;2023-04-25T02:31:40;7.38;;;2.53;;
35632;SDS011;21754;48.216;-1.628;2023-04-25T02:34:06;5.80;;;2.75;;
35632;SDS011;21754;48.216;-1.628;2023-04-25T02:36:32;5.63;;;2.35;;
35632;SDS011;21754;48.216;-1.628;2023-04-25T02:39:00;4.00;;;2.08;;
35632;SDS011;21754;48.216;-1.628;2023-04-25T02:41:27;4.90;;;3.72;;
35632;SDS011;21754;48.216;-1.628;2023-04-25T02:43:53;3.88;;;2.45;;
35632;SDS011;21754;48.216;-1.628;2023-04-25T02:46:19;12.20;;;2.80;;
35632;SDS011;21754;48.216;-1.628;2023-04-25T02:48:45;7.85;;;2.75;;
35632;SDS011;21754;48.216;-1.628;2023-04-25T02:51:11;6.30;;;2.60;;
35632;SDS011;21754;48.216;-1.628;2023-04-25T02:53:37;5.40;;;2.03;;
35632;SDS011;21754;48.216;-1.628;2023-04-25T02:56:04;5.30;;;2.60;;
35632;SDS011;21754;48.216;-1.628;2023-04-25T02:58:30;9.95;;;2.60;;
35632;SDS011;21754;48.216;-1.628;2023-04-25T03:00:56;6.28;;;3.40;;
35632;SDS011;21754;48.216;-1.628;2023-04-25T03:03:22;8.32;;;2.33;;
35632;SDS011;21754;48.216;-1.628;2023-04-25T03:05:48;4.75;;;2.88;;
35632;SDS011;21754;48.216;-1.628;2023-04-25T03:08:15;14.00;;;2.47;;
35632;SDS011;21754;48.216;-1.628;2023-04-25T03:10:41;11.85;;;3.03;;
35632;SDS011;21754;48.216;-1.628;2023-04-25T03:13:07;12.95;;;3.05;;
35632;SDS011;21754;48.216;-1.628;2023-04-25T03:15:34;4.55;;;2.50;;
35632;SDS011;21754;48.216;-1.628;2023-04-25T03:18:00;13.77;;;3.50;;
35632;SDS011;21754;48.216;-1.628;2023-04-25T03:20:26;3.08;;;2.53;;
35632;SDS011;21754;48.216;-1.628;2023-04-25T03:22:52;7.55;;;2.22;;
35632;SDS011;21754;48.216;-1.628;2023-04-25T03:25:19;13.45;;;2.40;;
35632;SDS011;21754;48.216;-1.628;2023-04-25T03:27:45;3.88;;;2.42;;
35632;SDS011;21754;48.216;-1.628;2023-04-25T03:30:11;3.05;;;2.30;;
35632;SDS011;21754;48.216;-1.628;2023-04-25T03:32:37;2.95;;;2.00;;
35632;SDS011;21754;48.216;-1.628;2023-04-25T03:35:03;4.10;;;3.00;;
35632;SDS011;21754;48.216;-1.628;2023-04-25T03:37:30;4.07;;;1.58;;
35632;SDS011;21754;48.216;-1.628;2023-04-25T03:39:56;3.85;;;2.42;;
35632;SDS011;21754;48.216;-1.628;2023-04-25T03:42:22;4.07;;;2.03;;
35632;SDS011;21754;48.216;-1.628;2023-04-25T03:44:48;5.10;;;2.78;;
35632;SDS011;21754;48.216;-1.628;2023-04-25T03:47:15;3.08;;;2.40;;
35632;SDS011;21754;48.216;-1.628;2023-04-25T03:49:41;3.05;;;2.30;;
35632;SDS011;21754;48.216;-1.628;2023-04-25T03:52:07;3.83;;;2.20;;
35632;SDS011;21754;48.216;-1.628;2023-04-25T03:54:33;2.45;;;2.25;;
35632;SDS011;21754;48.216;-1.628;2023-04-25T03:56:59;4.75;;;2.08;;
35632;SDS011;21754;48.216;-1.628;2023-04-25T03:59:25;4.43;;;2.50;;
35632;SDS011;21754;48.216;-1.628;2023-04-25T04:01:52;10.32;;;2.83;;
35632;SDS011;21754;48.216;-1.628;2023-04-25T04:04:18;6.22;;;3.15;;
35632;SDS011;21754;48.216;-1.628;2023-04-25T04:06:44;13.57;;;3.75;;
35632;SDS011;21754;48.216;-1.628;2023-04-25T04:09:10;5.65;;;2.53;;
35632;SDS011;21754;48.216;-1.628;2023-04-25T04:11:37;6.38;;;3.05;;
35632;SDS011;21754;48.216;-1.628;2023-04-25T04:14:06;5.68;;;2.80;;
35632;SDS011;21754;48.216;-1.628;2023-04-25T04:16:32;4.50;;;2.60;;
35632;SDS011;21754;48.216;-1.628;2023-04-25T04:18:58;9.70;;;2.83;;
35632;SDS011;21754;48.216;-1.628;2023-04-25T04:21:24;14.73;;;2.67;;
35632;SDS011;21754;48.216;-1.628;2023-04-25T04:23:51;7.50;;;2.88;;
35632;SDS011;21754;48.216;-1.628;2023-04-25T04:26:17;6.43;;;2.67;;
35632;SDS011;21754;48.216;-1.628;2023-04-25T04:28:43;10.10;;;2.63;;
35632;SDS011;21754;48.216;-1.628;2023-04-25T04:31:09;11.45;;;2.90;;
35632;SDS011;21754;48.216;-1.628;2023-04-25T04:33:35;6.40;;;2.67;;
35632;SDS011;21754;48.216;-1.628;2023-04-25T04:36:01;5.28;;;2.90;;
35632;SDS011;21754;48.216;-1.628;2023-04-25T04:38:28;7.68;;;2.80;;
35632;SDS011;21754;48.216;-1.628;2023-04-25T04:40:54;7.78;;;3.00;;
35632;SDS011;21754;48.216;-1.628;2023-04-25T04:43:20;9.30;;;2.08;;
35632;SDS011;21754;48.216;-1.628;2023-04-25T04:45:47;9.80;;;3.10;;
35632;SDS011;21754;48.216;-1.628;2023-04-25T04:48:14;3.55;;;2.28;;
35632;SDS011;21754;48.216;-1.628;2023-04-25T04:50:40;12.98;;;4.25;;
35632;SDS011;21754;48.216;-1.628;2023-04-25T04:53:09;7.85;;;4.00;;
35632;SDS011;21754;48.216;-1.628;2023-04-25T04:55:35;6.47;;;2.75;;
35632;SDS011;21754;48.216;-1.628;2023-04-25T04:58:01;10.15;;;4.25;;
35632;SDS011;21754;48.216;-1.628;2023-04-25T05:00:26;6.60;;;2.60;;
35632;SDS011;21754;48.216;-1.628;2023-04-25T05:02:54;10.73;;;3.05;;
35632;SDS011;21754;48.216;-1.628;2023-04-25T05:05:20;5.65;;;3.22;;
35632;SDS011;21754;48.216;-1.628;2023-04-25T05:07:46;8.40;;;3.72;;
35632;SDS011;21754;48.216;-1.628;2023-04-25T05:10:12;4.63;;;2.40;;
35632;SDS011;21754;48.216;-1.628;2023-04-25T05:12:37;7.10;;;2.30;;
35632;SDS011;21754;48.216;-1.628;2023-04-25T05:15:03;8.05;;;2.75;;
35632;SDS011;21754;48.216;-1.628;2023-04-25T05:17:29;10.65;;;2.88;;
35632;SDS011;21754;48.216;-1.628;2023-04-25T05:19:55;6.18;;;2.78;;
35632;SDS011;21754;48.216;-1.628;2023-04-25T05:22:20;3.92;;;2.40;;
35632;SDS011;21754;48.216;-1.628;2023-04-25T05:24:47;6.60;;;3.00;;
35632;SDS011;21754;48.216;-1.628;2023-04-25T05:27:13;7.07;;;2.50;;
35632;SDS011;21754;48.216;-1.628;2023-04-25T05:29:41;3.30;;;2.58;;
35632;SDS011;21754;48.216;-1.628;2023-04-25T05:32:06;3.10;;;2.50;;
35632;SDS011;21754;48.216;-1.628;2023-04-25T05:34:33;3.08;;;2.70;;
35632;SDS011;21754;48.216;-1.628;2023-04-25T05:36:59;10.88;;;3.85;;
35632;SDS011;21754;48.216;-1.628;2023-04-25T05:39:25;8.05;;;3.22;;
35632;SDS011;21754;48.216;-1.628;2023-04-25T05:41:51;9.13;;;3.53;;
35632;SDS011;21754;48.216;-1.628;2023-04-25T05:44:16;5.70;;;2.72;;
35632;SDS011;21754;48.216;-1.628;2023-04-25T05:46:42;11.60;;;3.40;;
35632;SDS011;21754;48.216;-1.628;2023-04-25T05:49:08;7.57;;;3.13;;
35632;SDS011;21754;48.216;-1.628;2023-04-25T05:51:34;11.23;;;2.80;;
35632;SDS011;21754;48.216;-1.628;2023-04-25T05:53:59;4.07;;;2.72;;
35632;SDS011;21754;48.216;-1.628;2023-04-25T05:56:25;8.27;;;3.35;;
35632;SDS011;21754;48.216;-1.628;2023-04-25T05:58:51;6.22;;;3.75;;
35632;SDS011;21754;48.216;-1.628;2023-04-25T06:01:17;5.88;;;3.25;;
35632;SDS011;21754;48.216;-1.628;2023-04-25T06:03:42;5.43;;;2.85;;
35632;SDS011;21754;48.216;-1.628;2023-04-25T06:06:08;8.40;;;2.97;;
35632;SDS011;21754;48.216;-1.628;2023-04-25T06:08:34;6.85;;;3.03;;
35632;SDS011;21754;48.216;-1.628;2023-04-25T06:11:00;7.03;;;3.03;;
35632;SDS011;21754;48.216;-1.628;2023-04-25T06:13:26;9.18;;;2.38;;
35632;SDS011;21754;48.216;-1.628;2023-04-25T06:15:51;8.73;;;2.60;;
35632;SDS011;21754;48.216;-1.628;2023-04-25T06:18:17;3.55;;;2.10;;
35632;SDS011;21754;48.216;-1.628;2023-04-25T06:20:42;5.15;;;2.92;;
35632;SDS011;21754;48.216;-1.628;2023-04-25T06:23:08;10.18;;;2.80;;
35632;SDS011;21754;48.216;-1.628;2023-04-25T06:25:34;6.70;;;2.90;;
35632;SDS011;21754;48.216;-1.628;2023-04-25T06:27:59;7.47;;;2.22;;
35632;SDS011;21754;48.216;-1.628;2023-04-25T06:30:25;2.92;;;2.38;;
35632;SDS011;21754;48.216;-1.628;2023-04-25T06:32:54;3.20;;;2.80;;
35632;SDS011;21754;48.216;-1.628;2023-04-25T06:35:19;17.75;;;4.93;;
35632;SDS011;21754;48.216;-1.628;2023-04-25T06:37:45;5.72;;;3.92;;
35632;SDS011;21754;48.216;-1.628;2023-04-25T06:40:11;4.15;;;3.78;;
35632;SDS011;21754;48.216;-1.628;2023-04-25T06:42:36;7.63;;;3.33;;
35632;SDS011;21754;48.216;-1.628;2023-04-25T06:45:02;9.20;;;3.67;;
35632;SDS011;21754;48.216;-1.628;2023-04-25T06:47:28;5.15;;;4.10;;
35632;SDS011;21754;48.216;-1.628;2023-04-25T06:49:54;5.20;;;3.03;;
35632;SDS011;21754;48.216;-1.628;2023-04-25T06:52:20;6.47;;;4.93;;
35632;SDS011;21754;48.216;-1.628;2023-04-25T06:54:46;10.02;;;3.17;;
35632;SDS011;21754;48.216;-1.628;2023-04-25T06:57:12;6.68;;;3.33;;
35632;SDS011;21754;48.216;-1.628;2023-04-25T06:59:38;8.05;;;3.90;;
35632;SDS011;21754;48.216;-1.628;2023-04-25T07:02:03;13.88;;;3.92;;
35632;SDS011;21754;48.216;-1.628;2023-04-25T07:04:30;12.18;;;4.50;;
35632;SDS011;21754;48.216;-1.628;2023-04-25T07:06:56;4.75;;;3.60;;
35632;SDS011;21754;48.216;-1.628;2023-04-25T07:09:22;8.38;;;3.95;;
35632;SDS011;21754;48.216;-1.628;2023-04-25T07:11:47;9.73;;;3.33;;
35632;SDS011;21754;48.216;-1.628;2023-04-25T07:14:13;5.72;;;4.75;;
35632;SDS011;21754;48.216;-1.628;2023-04-25T07:16:40;11.10;;;4.53;;
35632;SDS011;21754;48.216;-1.628;2023-04-25T07:19:05;5.13;;;4.13;;
35632;SDS011;21754;48.216;-1.628;2023-04-25T07:21:31;7.20;;;4.30;;
35632;SDS011;21754;48.216;-1.628;2023-04-25T07:23:57;10.90;;;4.18;;
35632;SDS011;21754;48.216;-1.628;2023-04-25T07:26:23;6.20;;;4.53;;
35632;SDS011;21754;48.216;-1.628;2023-04-25T07:28:49;13.98;;;5.38;;
35632;SDS011;21754;48.216;-1.628;2023-04-25T07:31:16;10.20;;;5.90;;
35632;SDS011;21754;48.216;-1.628;2023-04-25T07:33:43;10.02;;;4.93;;
35632;SDS011;21754;48.216;-1.628;2023-04-25T07:36:10;11.30;;;6.75;;
35632;SDS011;21754;48.216;-1.628;2023-04-25T07:38:37;8.13;;;5.20;;
35632;SDS011;21754;48.216;-1.628;2023-04-25T07:41:03;11.23;;;6.28;;
35632;SDS011;21754;48.216;-1.628;2023-04-25T07:43:29;12.68;;;6.38;;
35632;SDS011;21754;48.216;-1.628;2023-04-25T07:45:55;12.65;;;6.40;;
35632;SDS011;21754;48.216;-1.628;2023-04-25T07:48:21;15.88;;;7.03;;
35632;SDS011;21754;48.216;-1.628;2023-04-25T07:50:47;10.07;;;6.60;;
35632;SDS011;21754;48.216;-1.628;2023-04-25T07:53:13;10.73;;;6.60;;
35632;SDS011;21754;48.216;-1.628;2023-04-25T07:55:38;10.32;;;6.82;;
35632;SDS011;21754;48.216;-1.628;2023-04-25T07:58:05;16.58;;;7.13;;
35632;SDS011;21754;48.216;-1.628;2023-04-25T08:00:35;18.42;;;6.75;;
35632;SDS011;21754;48.216;-1.628;2023-04-25T08:03:01;8.65;;;6.95;;
35632;SDS011;21754;48.216;-1.628;2023-04-25T08:05:27;10.82;;;8.13;;
35632;SDS011;21754;48.216;-1.628;2023-04-25T08:07:53;11.85;;;7.13;;
35632;SDS011;21754;48.216;-1.628;2023-04-25T08:10:19;9.75;;;6.78;;
35632;SDS011;21754;48.216;-1.628;2023-04-25T08:12:45;13.18;;;7.28;;
35632;SDS011;21754;48.216;-1.628;2023-04-25T08:15:11;10.82;;;6.20;;
35632;SDS011;21754;48.216;-1.628;2023-04-25T08:17:38;7.78;;;6.75;;
35632;SDS011;21754;48.216;-1.628;2023-04-25T08:20:04;14.40;;;7.10;;
35632;SDS011;21754;48.216;-1.628;2023-04-25T08:22:30;15.40;;;6.85;;
35632;SDS011;21754;48.216;-1.628;2023-04-25T08:24:56;12.32;;;6.70;;
35632;SDS011;21754;48.216;-1.628;2023-04-25T08:27:22;7.43;;;5.65;;
35632;SDS011;21754;48.216;-1.628;2023-04-25T08:29:48;6.28;;;5.43;;
35632;SDS011;21754;48.216;-1.628;2023-04-25T08:32:15;6.80;;;5.35;;
35632;SDS011;21754;48.216;-1.628;2023-04-25T08:34:41;9.20;;;6.38;;
35632;SDS011;21754;48.216;-1.628;2023-04-25T08:37:08;9.75;;;5.78;;
35632;SDS011;21754;48.216;-1.628;2023-04-25T08:39:35;8.73;;;5.28;;
35632;SDS011;21754;48.216;-1.628;2023-04-25T08:42:05;8.35;;;5.53;;
35632;SDS011;21754;48.216;-1.628;2023-04-25T08:44:35;11.95;;;5.72;;
35632;SDS011;21754;48.216;-1.628;2023-04-25T08:47:04;10.20;;;5.18;;
35632;SDS011;21754;48.216;-1.628;2023-04-25T08:49:34;13.65;;;6.90;;
35632;SDS011;21754;48.216;-1.628;2023-04-25T08:52:00;10.43;;;6.32;;
35632;SDS011;21754;48.216;-1.628;2023-04-25T08:54:28;14.98;;;6.30;;
35632;SDS011;21754;48.216;-1.628;2023-04-25T08:56:56;13.43;;;6.20;;
35632;SDS011;21754;48.216;-1.628;2023-04-25T08:59:23;9.85;;;5.90;;
35632;SDS011;21754;48.216;-1.628;2023-04-25T09:01:49;6.95;;;6.20;;
35632;SDS011;21754;48.216;-1.628;2023-04-25T09:04:16;7.38;;;5.85;;
35632;SDS011;21754;48.216;-1.628;2023-04-25T09:06:45;6.65;;;5.63;;
35632;SDS011;21754;48.216;-1.628;2023-04-25T09:09:11;10.23;;;5.78;;
35632;SDS011;21754;48.216;-1.628;2023-04-25T09:11:37;6.53;;;5.60;;
35632;SDS011;21754;48.216;-1.628;2023-04-25T09:14:15;11.02;;;5.88;;
35632;SDS011;21754;48.216;-1.628;2023-04-25T09:21:50;6.97;;;5.23;;
35632;SDS011;21754;48.216;-1.628;2023-04-25T09:24:16;6.45;;;5.03;;
35632;SDS011;21754;48.216;-1.628;2023-04-25T09:27:04;9.70;;;5.30;;
35632;SDS011;21754;48.216;-1.628;2023-04-25T09:29:34;7.85;;;5.25;;
35632;SDS011;21754;48.216;-1.628;2023-04-25T09:34:42;13.63;;;5.13;;
35632;SDS011;21754;48.216;-1.628;2023-04-25T09:37:09;7.65;;;4.30;;
35632;SDS011;21754;48.216;-1.628;2023-04-25T09:39:39;12.00;;;5.90;;
35632;SDS011;21754;48.216;-1.628;2023-04-25T09:42:05;7.50;;;4.55;;
35632;SDS011;21754;48.216;-1.628;2023-04-25T09:44:31;12.13;;;6.88;;
35632;SDS011;21754;48.216;-1.628;2023-04-25T09:46:57;15.18;;;4.57;;
35632;SDS011;21754;48.216;-1.628;2023-04-25T09:49:24;16.30;;;5.80;;
35632;SDS011;21754;48.216;-1.628;2023-04-25T09:51:56;7.28;;;5.00;;
35632;SDS011;21754;48.216;-1.628;2023-04-25T09:54:23;7.50;;;5.50;;
35632;SDS011;21754;48.216;-1.628;2023-04-25T09:57:02;5.72;;;5.07;;
35632;SDS011;21754;48.216;-1.628;2023-04-25T09:59:42;12.38;;;4.88;;
35632;SDS011;21754;48.216;-1.628;2023-04-25T10:02:09;12.57;;;4.97;;
35632;SDS011;21754;48.216;-1.628;2023-04-25T10:04:35;8.73;;;4.30;;
35632;SDS011;21754;48.216;-1.628;2023-04-25T10:07:06;5.55;;;4.10;;
35632;SDS011;21754;48.216;-1.628;2023-04-25T10:09:33;6.85;;;4.35;;
35632;SDS011;21754;48.216;-1.628;2023-04-25T10:12:02;8.07;;;3.97;;
35632;SDS011;21754;48.216;-1.628;2023-04-25T10:14:32;6.35;;;3.33;;
35632;SDS011;21754;48.216;-1.628;2023-04-25T10:16:59;5.53;;;3.35;;
35632;SDS011;21754;48.216;-1.628;2023-04-25T10:19:27;6.63;;;3.00;;
35632;SDS011;21754;48.216;-1.628;2023-04-25T10:22:14;5.40;;;3.85;;
35632;SDS011;21754;48.216;-1.628;2023-04-25T10:24:42;5.72;;;3.95;;
35632;SDS011;21754;48.216;-1.628;2023-04-25T10:27:08;4.57;;;4.03;;
35632;SDS011;21754;48.216;-1.628;2023-04-25T10:29:35;9.82;;;3.78;;
35632;SDS011;21754;48.216;-1.628;2023-04-25T10:32:01;11.85;;;5.10;;
35632;SDS011;21754;48.216;-1.628;2023-04-25T10:34:40;6.10;;;3.80;;
35632;SDS011;21754;48.216;-1.628;2023-04-25T10:37:10;3.97;;;3.28;;
35632;SDS011;21754;48.216;-1.628;2023-04-25T10:39:37;5.53;;;3.90;;
35632;SDS011;21754;48.216;-1.628;2023-04-25T10:42:04;6.47;;;3.28;;
35632;SDS011;21754;48.216;-1.628;2023-04-25T10:44:30;5.68;;;3.10;;
35632;SDS011;21754;48.216;-1.628;2023-04-25T10:46:57;6.15;;;3.30;;
35632;SDS011;21754;48.216;-1.628;2023-04-25T10:49:31;3.50;;;3.20;;
35632;SDS011;21754;48.216;-1.628;2023-04-25T10:54:57;3.75;;;2.88;;
35632;SDS011;21754;48.216;-1.628;2023-04-25T10:57:42;3.92;;;2.42;;
35632;SDS011;21754;48.216;-1.628;2023-04-25T11:00:17;4.85;;;2.42;;
35632;SDS011;21754;48.216;-1.628;2023-04-25T11:02:58;3.45;;;2.42;;
35632;SDS011;21754;48.216;-1.628;2023-04-25T11:05:29;7.38;;;2.72;;
35632;SDS011;21754;48.216;-1.628;2023-04-25T11:07:55;3.47;;;3.08;;
35632;SDS011;21754;48.216;-1.628;2023-04-25T11:10:25;5.57;;;3.72;;
35632;SDS011;21754;48.216;-1.628;2023-04-25T11:12:58;5.43;;;2.83;;
35632;SDS011;21754;48.216;-1.628;2023-04-25T11:15:25;6.20;;;2.50;;
35632;SDS011;21754;48.216;-1.628;2023-04-25T11:17:52;6.88;;;2.85;;
35632;SDS011;21754;48.216;-1.628;2023-04-25T11:20:18;4.85;;;2.97;;
35632;SDS011;21754;48.216;-1.628;2023-04-25T11:22:47;7.35;;;3.72;;
35632;SDS011;21754;48.216;-1.628;2023-04-25T11:25:22;5.55;;;4.13;;
35632;SDS011;21754;48.216;-1.628;2023-04-25T11:30:15;3.15;;;2.85;;
35632;SDS011;21754;48.216;-1.628;2023-04-25T11:32:42;6.82;;;3.20;;
35632;SDS011;21754;48.216;-1.628;2023-04-25T11:35:08;2.92;;;2.35;;
35632;SDS011;21754;48.216;-1.628;2023-04-25T11:37:35;6.75;;;2.85;;
35632;SDS011;21754;48.216;-1.628;2023-04-25T11:40:02;6.07;;;2.80;;
35632;SDS011;21754;48.216;-1.628;2023-04-25T11:42:28;3.55;;;3.00;;
35632;SDS011;21754;48.216;-1.628;2023-04-25T11:44:54;3.75;;;2.65;;
35632;SDS011;21754;48.216;-1.628;2023-04-25T11:47:27;2.60;;;2.10;;
35632;SDS011;21754;48.216;-1.628;2023-04-25T11:49:53;2.80;;;2.30;;
35632;SDS011;21754;48.216;-1.628;2023-04-25T11:52:19;8.25;;;2.63;;
35632;SDS011;21754;48.216;-1.628;2023-04-25T11:54:45;3.95;;;2.63;;
35632;SDS011;21754;48.216;-1.628;2023-04-25T11:57:11;3.70;;;3.20;;
35632;SDS011;21754;48.216;-1.628;2023-04-25T11:59:37;3.70;;;2.38;;
35632;SDS011;21754;48.216;-1.628;2023-04-25T12:02:03;3.92;;;2.30;;
35632;SDS011;21754;48.216;-1.628;2023-04-25T12:04:31;2.30;;;2.10;;
35632;SDS011;21754;48.216;-1.628;2023-04-25T12:06:58;4.72;;;2.72;;
35632;SDS011;21754;48.216;-1.628;2023-04-25T12:09:29;2.17;;;1.83;;
35632;SDS011;21754;48.216;-1.628;2023-04-25T12:12:01;2.63;;;1.73;;
35632;SDS011;21754;48.216;-1.628;2023-04-25T12:14:31;5.10;;;2.90;;
35632;SDS011;21754;48.216;-1.628;2023-04-25T12:16:58;3.85;;;2.38;;
35632;SDS011;21754;48.216;-1.628;2023-04-25T12:19:37;4.43;;;2.17;;
35632;SDS011;21754;48.216;-1.628;2023-04-25T12:25:04;4.80;;;2.55;;
35632;SDS011;21754;48.216;-1.628;2023-04-25T12:27:31;1.77;;;1.67;;
35632;SDS011;21754;48.216;-1.628;2023-04-25T12:30:03;4.53;;;2.20;;
35632;SDS011;21754;48.216;-1.628;2023-04-25T12:32:48;3.97;;;1.70;;
35632;SDS011;21754;48.216;-1.628;2023-04-25T12:35:20;2.90;;;1.70;;
35632;SDS011;21754;48.216;-1.628;2023-04-25T12:37:51;3.78;;;1.55;;
35632;SDS011;21754;48.216;-1.628;2023-04-25T12:42:46;2.65;;;1.38;;
35632;SDS011;21754;48.216;-1.628;2023-04-25T12:45:16;4.75;;;2.58;;
35632;SDS011;21754;48.216;-1.628;2023-04-25T12:47:42;6.60;;;2.25;;
35632;SDS011;21754;48.216;-1.628;2023-04-25T12:50:08;3.60;;;2.15;;
35632;SDS011;21754;48.216;-1.628;2023-04-25T12:52:34;3.30;;;2.78;;
35632;SDS011;21754;48.216;-1.628;2023-04-25T12:55:03;2.10;;;2.00;;
35632;SDS011;21754;48.216;-1.628;2023-04-25T12:57:35;3.85;;;2.17;;
35632;SDS011;21754;48.216;-1.628;2023-04-25T13:05:01;2.22;;;1.63;;
35632;SDS011;21754;48.216;-1.628;2023-04-25T13:07:33;5.13;;;2.08;;
35632;SDS011;21754;48.216;-1.628;2023-04-25T13:10:00;6.50;;;2.53;;
35632;SDS011;21754;48.216;-1.628;2023-04-25T13:12:30;2.67;;;2.20;;
35632;SDS011;21754;48.216;-1.628;2023-04-25T13:15:02;3.13;;;2.92;;
35632;SDS011;21754;48.216;-1.628;2023-04-25T13:17:32;2.55;;;2.35;;
35632;SDS011;21754;48.216;-1.628;2023-04-25T13:19:58;2.60;;;2.13;;
35632;SDS011;21754;48.216;-1.628;2023-04-25T13:22:27;5.07;;;2.45;;
35632;SDS011;21754;48.216;-1.628;2023-04-25T13:24:59;5.30;;;2.35;;
35632;SDS011;21754;48.216;-1.628;2023-04-25T13:27:37;4.00;;;2.67;;
35632;SDS011;21754;48.216;-1.628;2023-04-25T13:30:05;2.38;;;2.17;;
35632;SDS011;21754;48.216;-1.628;2023-04-25T13:32:41;2.92;;;2.15;;
35632;SDS011;21754;48.216;-1.628;2023-04-25T13:35:08;2.53;;;1.52;;
35632;SDS011;21754;48.216;-1.628;2023-04-25T13:40:50;2.63;;;2.05;;
35632;SDS011;21754;48.216;-1.628;2023-04-25T13:43:20;2.85;;;1.55;;
35632;SDS011;21754;48.216;-1.628;2023-04-25T13:45:49;5.07;;;1.70;;
35632;SDS011;21754;48.216;-1.628;2023-04-25T13:48:15;4.95;;;2.40;;
35632;SDS011;21754;48.216;-1.628;2023-04-25T13:50:41;1.95;;;1.75;;
35632;SDS011;21754;48.216;-1.628;2023-04-25T13:53:07;2.22;;;2.00;;
35632;SDS011;21754;48.216;-1.628;2023-04-25T13:55:34;2.78;;;2.30;;
35632;SDS011;21754;48.216;-1.628;2023-04-25T14:03:53;4.53;;;2.45;;
35632;SDS011;21754;48.216;-1.628;2023-04-25T14:06:19;4.63;;;2.80;;
35632;SDS011;21754;48.216;-1.628;2023-04-25T14:08:48;5.70;;;2.58;;
35632;SDS011;21754;48.216;-1.628;2023-04-25T14:11:14;4.32;;;2.17;;
35632;SDS011;21754;48.216;-1.628;2023-04-25T14:13:48;3.60;;;2.35;;
35632;SDS011;21754;48.216;-1.628;2023-04-25T14:16:15;6.13;;;1.98;;
35632;SDS011;21754;48.216;-1.628;2023-04-25T14:18:41;2.28;;;2.15;;
35632;SDS011;21754;48.216;-1.628;2023-04-25T14:21:07;2.63;;;2.03;;
35632;SDS011;21754;48.216;-1.628;2023-04-25T14:23:36;4.13;;;2.45;;
35632;SDS011;21754;48.216;-1.628;2023-04-25T14:26:05;3.20;;;2.70;;
35632;SDS011;21754;48.216;-1.628;2023-04-25T14:28:31;3.75;;;2.20;;
35632;SDS011;21754;48.216;-1.628;2023-04-25T14:30:57;3.97;;;2.33;;
35632;SDS011;21754;48.216;-1.628;2023-04-25T14:33:23;3.97;;;1.92;;
35632;SDS011;21754;48.216;-1.628;2023-04-25T14:35:49;3.17;;;2.50;;
35632;SDS011;21754;48.216;-1.628;2023-04-25T14:38:16;2.40;;;2.13;;
35632;SDS011;21754;48.216;-1.628;2023-04-25T14:40:42;5.13;;;2.47;;
35632;SDS011;21754;48.216;-1.628;2023-04-25T14:43:08;3.53;;;2.40;;
35632;SDS011;21754;48.216;-1.628;2023-04-25T14:45:36;4.80;;;2.05;;
35632;SDS011;21754;48.216;-1.628;2023-04-25T14:48:02;5.43;;;2.22;;
35632;SDS011;21754;48.216;-1.628;2023-04-25T14:50:47;3.35;;;3.05;;
35632;SDS011;21754;48.216;-1.628;2023-04-25T14:53:13;3.33;;;2.25;;
35632;SDS011;21754;48.216;-1.628;2023-04-25T14:55:39;3.08;;;2.65;;
35632;SDS011;21754;48.216;-1.628;2023-04-25T15:00:45;5.80;;;3.20;;
35632;SDS011;21754;48.216;-1.628;2023-04-25T15:03:11;5.53;;;2.67;;
35632;SDS011;21754;48.216;-1.628;2023-04-25T15:05:51;4.07;;;3.47;;